createdAt,value
2019-04-28T00:01:53.698Z,100.00
2019-04-28T00:04:24.470Z,100.00
2019-04-28T00:06:55.734Z,100.00
2019-04-28T00:09:26.690Z,100.00
2019-04-28T00:11:57.726Z,100.00
2019-04-28T00:14:28.571Z,100.00
2019-04-28T00:17:01.063Z,100.00
2019-04-28T00:19:32.570Z,100.00
2019-04-28T00:22:12.547Z,100.00
2019-04-28T00:24:51.522Z,100.00
2019-04-28T00:27:22.469Z,100.00
2019-04-28T00:29:53.486Z,100.00
2019-04-28T00:32:24.336Z,100.00
2019-04-28T00:34:55.544Z,100.00
2019-04-28T00:37:32.505Z,100.00
2019-04-28T00:40:03.700Z,98.78
2019-04-28T00:42:34.777Z,99.24
2019-04-28T00:45:07.179Z,99.34
2019-04-28T00:47:38.030Z,96.75
2019-04-28T00:50:09.077Z,97.46
2019-04-28T00:52:41.767Z,98.48
2019-04-28T00:55:12.777Z,99.21
2019-04-28T00:57:43.543Z,100.00
2019-04-28T01:00:16.242Z,100.00
2019-04-28T01:02:47.330Z,98.24
2019-04-28T01:05:19.086Z,98.21
2019-04-28T01:07:51.117Z,98.48
2019-04-28T01:10:23.025Z,99.19
2019-04-28T01:12:53.876Z,99.39
2019-04-28T01:15:43.795Z,97.51
2019-04-28T01:18:30.339Z,97.51
2019-04-28T01:21:01.234Z,96.91
2019-04-28T01:23:33.486Z,97.98
2019-04-28T01:26:05.514Z,97.35
2019-04-28T01:28:36.309Z,97.43
2019-04-28T01:31:19.566Z,98.69
2019-04-28T01:34:10.339Z,99.23
2019-04-28T01:36:41.115Z,99.86
2019-04-28T01:39:12.293Z,97.57
2019-04-28T01:41:43.140Z,98.99
2019-04-28T01:44:13.893Z,99.24
2019-04-28T01:46:45.157Z,98.98
2019-04-28T01:49:16.163Z,98.94
2019-04-28T01:51:57.148Z,96.91
2019-04-28T01:54:30.216Z,97.63
2019-04-28T01:57:01.943Z,96.78
2019-04-28T01:59:34.786Z,98.21
2019-04-28T02:02:05.918Z,100.00
2019-04-28T02:04:37.015Z,99.82
2019-04-28T02:07:07.930Z,100.00
2019-04-28T02:09:39.595Z,99.50
2019-04-28T02:12:10.725Z,99.98
2019-04-28T02:14:41.797Z,100.00
2019-04-28T02:17:12.582Z,98.98
2019-04-28T02:19:43.676Z,99.34
2019-04-28T02:22:30.156Z,98.81
2019-04-28T02:25:01.823Z,97.43
2019-04-28T02:27:32.775Z,100.00
2019-04-28T02:30:04.987Z,97.75
2019-04-28T02:32:35.885Z,100.00
2019-04-28T02:35:10.409Z,98.85
2019-04-28T02:37:40.695Z,99.22
2019-04-28T02:40:11.790Z,100.00
2019-04-28T02:42:42.661Z,100.00
2019-04-28T02:45:21.493Z,98.61
2019-04-28T02:47:52.734Z,99.58
2019-04-28T02:50:41.659Z,99.74
2019-04-28T02:53:41.024Z,98.89
2019-04-28T02:56:11.899Z,98.89
2019-04-28T02:58:43.152Z,99.15
2019-04-28T03:01:22.778Z,100.00
2019-04-28T03:03:47.036Z,100.00
2019-04-28T03:06:20.729Z,100.00
2019-04-28T03:08:51.407Z,100.00
2019-04-28T03:11:22.269Z,100.00
2019-04-28T03:13:53.116Z,100.00
2019-04-28T03:16:24.140Z,100.00
2019-04-28T03:18:55.318Z,100.00
2019-04-28T03:21:26.757Z,100.00
2019-04-28T03:23:57.778Z,100.00
2019-04-28T03:26:35.351Z,100.00
2019-04-28T03:29:11.608Z,100.00
2019-04-28T03:32:10.236Z,100.00
2019-04-28T03:34:23.484Z,100.00
2019-04-28T03:36:52.642Z,100.00
2019-04-28T03:39:23.558Z,100.00
2019-04-28T03:41:54.562Z,100.00
2019-04-28T03:44:25.644Z,100.00
2019-04-28T03:46:56.666Z,100.00
2019-04-28T03:49:34.405Z,100.00
2019-04-28T03:52:05.913Z,100.00
2019-04-28T03:54:36.997Z,100.00
2019-04-28T03:57:07.832Z,100.00
2019-04-28T03:59:41.312Z,100.00
2019-04-28T04:02:11.673Z,100.00
2019-04-28T04:04:43.936Z,100.00
2019-04-28T04:07:14.921Z,100.00
2019-04-28T04:10:04.505Z,100.00
2019-04-28T04:12:43.484Z,100.00
2019-04-28T04:15:43.534Z,100.00
2019-04-28T04:18:21.079Z,100.00
2019-04-28T04:20:52.009Z,100.00
2019-04-28T04:23:23.541Z,100.00
2019-04-28T04:25:54.379Z,100.00
2019-04-28T04:28:25.631Z,100.00
2019-04-28T04:30:56.706Z,99.87
2019-04-28T04:33:27.560Z,98.90
2019-04-28T04:36:01.329Z,100.00
2019-04-28T04:38:31.502Z,97.97
2019-04-28T04:41:03.906Z,100.00
2019-04-28T04:43:34.967Z,99.70
2019-04-28T04:46:21.455Z,98.34
2019-04-28T04:48:51.349Z,98.45
2019-04-28T04:51:22.139Z,98.69
2019-04-28T04:53:52.983Z,98.31
2019-04-28T04:56:23.731Z,98.45
2019-04-28T04:58:54.503Z,97.81
2019-04-28T05:01:50.903Z,98.45
2019-04-28T05:04:39.650Z,98.06
2019-04-28T05:07:10.887Z,97.77
2019-04-28T05:09:41.604Z,97.42
2019-04-28T05:12:12.439Z,97.25
2019-04-28T05:14:43.606Z,97.61
2019-04-28T05:17:14.662Z,96.66
2019-04-28T05:19:45.433Z,96.03
2019-04-28T05:22:17.542Z,96.68
2019-04-28T05:24:57.598Z,96.07
2019-04-28T05:27:30.060Z,96.82
2019-04-28T05:30:02.550Z,97.58
2019-04-28T05:32:43.219Z,96.62
2019-04-28T05:35:06.855Z,96.57
2019-04-28T05:37:38.062Z,94.38
2019-04-28T05:40:10.447Z,96.22
2019-04-28T05:42:58.255Z,94.82
2019-04-28T05:45:32.215Z,94.18
2019-04-28T05:48:03.164Z,92.91
2019-04-28T05:50:40.090Z,92.08
2019-04-28T05:53:32.734Z,93.36
2019-04-28T05:56:20.884Z,93.47
2019-04-28T05:58:57.819Z,94.10
2019-04-28T06:01:35.858Z,93.69
2019-04-28T06:04:06.682Z,93.19
2019-04-28T06:06:40.593Z,93.82
2019-04-28T06:09:21.479Z,93.50
2019-04-28T06:11:54.542Z,93.60
2019-04-28T06:14:24.877Z,92.53
2019-04-28T06:16:55.655Z,92.80
2019-04-28T06:19:26.671Z,93.00
2019-04-28T06:21:57.663Z,91.93
2019-04-28T06:24:28.658Z,92.04
2019-04-28T06:26:59.417Z,90.41
2019-04-28T06:29:30.177Z,91.24
2019-04-28T06:32:01.191Z,92.31
2019-04-28T06:34:32.023Z,93.57
2019-04-28T06:37:02.934Z,92.17
2019-04-28T06:39:33.753Z,92.87
2019-04-28T06:42:06.266Z,91.93
2019-04-28T06:44:37.161Z,92.22
2019-04-28T06:47:07.935Z,91.81
2019-04-28T06:49:38.770Z,91.35
2019-04-28T06:52:09.617Z,89.51
2019-04-28T06:54:40.458Z,89.16
2019-04-28T06:57:11.363Z,89.18
2019-04-28T06:59:42.341Z,89.17
2019-04-28T07:02:13.118Z,89.87
2019-04-28T07:04:44.413Z,90.06
2019-04-28T07:07:15.498Z,88.74
2019-04-28T07:09:46.569Z,90.04
2019-04-28T07:12:17.346Z,88.64
2019-04-28T07:14:48.191Z,90.06
2019-04-28T07:17:18.958Z,87.94
2019-04-28T07:19:57.269Z,89.37
2019-04-28T07:22:29.674Z,88.68
2019-04-28T07:25:00.442Z,87.96
2019-04-28T07:27:31.203Z,84.93
2019-04-28T07:30:02.037Z,85.48
2019-04-28T07:32:33.165Z,84.93
2019-04-28T07:35:03.993Z,84.85
2019-04-28T07:37:35.603Z,83.15
2019-04-28T07:40:06.595Z,84.38
2019-04-28T07:42:37.402Z,82.91
2019-04-28T07:45:08.261Z,80.76
2019-04-28T07:47:39.282Z,80.56
2019-04-28T07:50:10.223Z,80.07
2019-04-28T07:52:48.711Z,78.65
2019-04-28T07:55:19.466Z,79.70
2019-04-28T07:57:50.564Z,78.76
2019-04-28T08:00:28.334Z,80.54
2019-04-28T08:02:59.625Z,82.94
2019-04-28T08:05:30.885Z,83.22
2019-04-28T08:08:02.060Z,82.73
2019-04-28T08:10:33.387Z,82.34
2019-04-28T08:13:04.419Z,83.35
2019-04-28T08:15:35.558Z,82.04
2019-04-28T08:18:06.778Z,81.81
2019-04-28T08:20:37.600Z,81.58
2019-04-28T08:23:08.364Z,81.54
2019-04-28T08:25:39.376Z,81.67
2019-04-28T08:28:10.379Z,79.75
2019-04-28T08:30:41.208Z,80.53
2019-04-28T08:33:27.908Z,81.53
2019-04-28T08:35:58.654Z,80.96
2019-04-28T08:38:29.489Z,79.31
2019-04-28T08:41:00.835Z,80.31
2019-04-28T08:43:31.692Z,80.98
2019-04-28T08:46:02.461Z,78.29
2019-04-28T08:48:33.455Z,79.57
2019-04-28T08:51:04.534Z,80.67
2019-04-28T08:53:35.461Z,82.38
2019-04-28T08:56:06.542Z,83.59
2019-04-28T08:58:38.766Z,86.15
2019-04-28T09:01:11.681Z,87.21
2019-04-28T09:03:52.346Z,89.52
2019-04-28T09:06:59.124Z,87.98
2019-04-28T09:09:41.718Z,88.80
2019-04-28T09:12:17.085Z,91.93
2019-04-28T09:15:13.468Z,96.86
2019-04-28T09:17:58.418Z,96.35
2019-04-28T09:20:40.435Z,96.17
2019-04-28T09:23:11.366Z,96.56
2019-04-28T09:25:42.117Z,95.49
2019-04-28T09:28:13.689Z,95.38
2019-04-28T09:30:44.450Z,96.93
2019-04-28T09:33:15.301Z,92.86
2019-04-28T09:35:46.623Z,94.71
2019-04-28T09:38:17.686Z,94.95
2019-04-28T09:40:48.498Z,95.51
2019-04-28T09:43:37.054Z,94.52
2019-04-28T09:46:16.105Z,94.18
2019-04-28T09:48:47.138Z,96.07
2019-04-28T09:51:18.325Z,97.08
2019-04-28T09:53:49.113Z,96.80
2019-04-28T09:56:20.432Z,94.68
2019-04-28T09:58:51.737Z,94.35
2019-04-28T10:01:23.342Z,95.35
2019-04-28T10:03:54.128Z,94.10
2019-04-28T10:06:24.891Z,94.64
2019-04-28T10:08:56.289Z,95.15
2019-04-28T10:11:30.665Z,94.97
2019-04-28T10:13:59.879Z,93.99
2019-04-28T10:16:30.889Z,94.20
2019-04-28T10:19:01.767Z,94.24
2019-04-28T10:21:32.759Z,91.67
2019-04-28T10:24:03.858Z,91.64
2019-04-28T10:26:36.402Z,90.26
2019-04-28T10:29:07.306Z,89.80
2019-04-28T10:31:38.081Z,90.16
2019-04-28T10:34:09.158Z,85.44
2019-04-28T10:36:40.214Z,83.51
2019-04-28T10:39:34.336Z,79.18
2019-04-28T10:42:05.611Z,81.66
2019-04-28T10:44:39.957Z,79.91
2019-04-28T10:47:11.032Z,77.31
2019-04-28T10:49:41.891Z,80.56
2019-04-28T10:52:13.146Z,80.68
2019-04-28T10:54:44.973Z,79.57
2019-04-28T10:57:16.419Z,80.30
2019-04-28T10:59:47.454Z,81.66
2019-04-28T11:02:18.210Z,82.82
2019-04-28T11:05:07.796Z,86.84
2019-04-28T11:07:30.113Z,86.60
2019-04-28T11:10:20.113Z,84.53
2019-04-28T11:12:51.020Z,83.70
2019-04-28T11:15:29.358Z,84.40
2019-04-28T11:18:00.194Z,83.94
2019-04-28T11:20:30.976Z,83.64
2019-04-28T11:23:01.815Z,86.07
2019-04-28T11:25:32.601Z,84.15
2019-04-28T11:28:03.681Z,84.67
2019-04-28T11:30:34.535Z,84.03
2019-04-28T11:33:22.257Z,81.83
2019-04-28T11:35:53.114Z,80.67
2019-04-28T11:38:24.137Z,81.74
2019-04-28T11:40:55.043Z,79.86
2019-04-28T11:43:26.047Z,77.95
2019-04-28T11:45:57.128Z,77.77
2019-04-28T11:48:28.398Z,81.30
2019-04-28T11:51:00.714Z,76.46
2019-04-28T11:53:32.219Z,75.67
2019-04-28T11:56:04.209Z,72.35
2019-04-28T11:58:35.637Z,70.53
2019-04-28T12:01:07.046Z,63.87
2019-04-28T12:03:37.900Z,62.96
2019-04-28T12:06:09.071Z,66.18
2019-04-28T12:08:40.078Z,58.48
2019-04-28T12:11:23.370Z,65.20
2019-04-28T12:14:28.676Z,64.71
2019-04-28T12:17:20.019Z,69.56
2019-04-28T12:19:56.813Z,67.82
2019-04-28T12:22:27.676Z,64.46
2019-04-28T12:24:59.894Z,68.14
2019-04-28T12:27:30.689Z,63.26
2019-04-28T12:30:01.790Z,66.28
2019-04-28T12:32:32.993Z,67.94
2019-04-28T12:35:03.978Z,68.76
2019-04-28T12:37:35.291Z,65.12
2019-04-28T12:40:06.616Z,67.87
2019-04-28T12:42:37.658Z,65.34
2019-04-28T12:45:08.763Z,67.79
2019-04-28T12:47:39.615Z,68.92
2019-04-28T12:50:17.247Z,66.39
2019-04-28T12:52:48.315Z,65.13
2019-04-28T12:55:19.158Z,67.25
2019-04-28T12:57:50.162Z,63.90
2019-04-28T13:00:35.936Z,63.60
2019-04-28T13:03:37.679Z,61.42
2019-04-28T13:06:10.478Z,62.00
2019-04-28T13:08:41.570Z,62.83
2019-04-28T13:11:12.606Z,64.15
2019-04-28T13:13:46.769Z,64.68
2019-04-28T13:16:15.929Z,68.19
2019-04-28T13:18:46.986Z,68.85
2019-04-28T13:21:17.836Z,64.03
2019-04-28T13:23:48.842Z,62.28
2019-04-28T13:26:19.888Z,61.80
2019-04-28T13:28:50.907Z,61.92
2019-04-28T13:31:21.693Z,58.53
2019-04-28T13:33:56.300Z,59.83
2019-04-28T13:36:25.700Z,58.08
2019-04-28T13:38:58.741Z,55.83
2019-04-28T13:41:29.845Z,56.72
2019-04-28T13:44:02.638Z,58.20
2019-04-28T13:46:34.009Z,60.68
2019-04-28T13:49:06.996Z,56.97
2019-04-28T13:51:38.844Z,58.97
2019-04-28T13:54:11.562Z,55.54
2019-04-28T13:56:42.663Z,56.83
2019-04-28T13:59:18.266Z,56.83
2019-04-28T14:01:59.581Z,56.96
2019-04-28T14:04:39.663Z,56.96
2019-04-28T14:07:10.540Z,54.98
2019-04-28T14:09:41.763Z,53.94
2019-04-28T14:12:12.799Z,52.38
2019-04-28T14:14:43.810Z,54.30
2019-04-28T14:17:14.778Z,53.50
2019-04-28T14:19:45.535Z,50.89
2019-04-28T14:22:16.305Z,51.12
2019-04-28T14:24:47.372Z,54.64
2019-04-28T14:27:18.148Z,52.53
2019-04-28T14:29:49.140Z,53.60
2019-04-28T14:32:19.915Z,50.37
2019-04-28T14:34:50.925Z,50.37
2019-04-28T14:37:21.976Z,48.69
2019-04-28T14:39:53.064Z,48.69
2019-04-28T14:42:23.845Z,49.65
2019-04-28T14:44:54.840Z,54.70
2019-04-28T14:47:27.104Z,54.10
2019-04-28T14:49:57.896Z,52.05
2019-04-28T14:52:29.211Z,53.84
2019-04-28T14:54:59.967Z,53.03
2019-04-28T14:57:30.975Z,53.91
2019-04-28T15:00:01.838Z,54.48
2019-04-28T15:02:53.637Z,56.16
2019-04-28T15:05:39.432Z,58.67
2019-04-28T15:08:26.333Z,58.67
2019-04-28T15:11:15.207Z,56.82
2019-04-28T15:13:46.270Z,59.28
2019-04-28T15:16:17.115Z,56.85
2019-04-28T15:18:48.202Z,58.10
2019-04-28T15:21:19.442Z,57.84
2019-04-28T15:23:50.241Z,56.89
2019-04-28T15:26:21.575Z,58.98
2019-04-28T15:28:52.611Z,59.23
2019-04-28T15:31:23.386Z,58.61
2019-04-28T15:33:55.379Z,62.40
2019-04-28T15:36:26.151Z,63.66
2019-04-28T15:38:56.972Z,63.01
2019-04-28T15:41:27.742Z,61.27
2019-04-28T15:43:58.779Z,61.66
2019-04-28T15:46:29.622Z,61.54
2019-04-28T15:49:00.811Z,61.89
2019-04-28T15:51:31.587Z,60.97
2019-04-28T15:54:02.639Z,63.53
2019-04-28T15:56:43.251Z,60.92
2019-04-28T15:59:14.291Z,60.82
2019-04-28T16:01:45.052Z,61.59
2019-04-28T16:04:18.296Z,61.73
2019-04-28T16:06:48.422Z,60.71
2019-04-28T16:09:19.528Z,60.44
2019-04-28T16:11:50.413Z,62.21
2019-04-28T16:14:21.494Z,61.49
2019-04-28T16:16:52.597Z,62.30
2019-04-28T16:19:23.377Z,61.22
2019-04-28T16:21:54.446Z,61.19
2019-04-28T16:24:25.415Z,63.63
2019-04-28T16:26:56.624Z,63.50
2019-04-28T16:29:27.759Z,62.36
2019-04-28T16:31:58.648Z,63.69
2019-04-28T16:34:29.454Z,63.38
2019-04-28T16:37:00.271Z,62.86
2019-04-28T16:39:31.063Z,61.24
2019-04-28T16:42:08.349Z,64.77
2019-04-28T16:44:42.602Z,64.40
2019-04-28T16:47:13.634Z,64.55
2019-04-28T16:49:46.037Z,65.18
2019-04-28T16:52:17.336Z,64.32
2019-04-28T16:54:50.326Z,64.58
2019-04-28T16:57:37.658Z,67.65
2019-04-28T17:00:19.754Z,68.77
2019-04-28T17:02:52.648Z,70.21
2019-04-28T17:05:23.659Z,70.66
2019-04-28T17:07:54.459Z,70.00
2019-04-28T17:10:25.518Z,70.85
2019-04-28T17:12:56.908Z,71.21
2019-04-28T17:15:30.261Z,70.78
2019-04-28T17:18:00.620Z,70.87
2019-04-28T17:20:31.708Z,71.39
2019-04-28T17:23:02.988Z,71.19
2019-04-28T17:25:33.748Z,71.72
2019-04-28T17:28:04.916Z,70.13
2019-04-28T17:30:35.856Z,70.99
2019-04-28T17:33:07.115Z,71.84
2019-04-28T17:35:38.136Z,73.25
2019-04-28T17:38:09.002Z,71.27
2019-04-28T17:40:40.398Z,71.06
2019-04-28T17:43:12.647Z,74.25
2019-04-28T17:45:43.412Z,75.46
2019-04-28T17:48:19.491Z,74.63
2019-04-28T17:50:50.330Z,77.24
2019-04-28T17:53:21.119Z,73.99
2019-04-28T17:55:52.377Z,74.28
2019-04-28T17:58:23.239Z,74.74
2019-04-28T18:01:18.924Z,76.50
2019-04-28T18:04:20.595Z,76.26
2019-04-28T18:06:57.075Z,79.01
2019-04-28T18:09:28.053Z,78.33
2019-04-28T18:11:59.446Z,75.12
2019-04-28T18:14:30.505Z,79.01
2019-04-28T18:17:23.547Z,79.47
2019-04-28T18:19:54.756Z,79.06
2019-04-28T18:22:25.520Z,79.31
2019-04-28T18:24:56.403Z,81.31
2019-04-28T18:27:27.552Z,80.99
2019-04-28T18:29:58.824Z,79.88
2019-04-28T18:32:51.615Z,79.38
2019-04-28T18:35:40.130Z,79.95
2019-04-28T18:38:17.606Z,82.17
2019-04-28T18:41:05.090Z,83.31
2019-04-28T18:43:44.553Z,83.36
2019-04-28T18:46:18.069Z,84.70
2019-04-28T18:48:48.846Z,85.65
2019-04-28T18:51:19.873Z,86.52
2019-04-28T18:53:50.639Z,87.17
2019-04-28T18:56:21.642Z,88.11
2019-04-28T18:58:52.724Z,89.24
2019-04-28T19:01:43.091Z,89.97
2019-04-28T19:04:15.025Z,90.58
2019-04-28T19:06:46.842Z,91.24
2019-04-28T19:09:25.634Z,91.30
2019-04-28T19:12:11.678Z,91.42
2019-04-28T19:14:50.506Z,91.28
2019-04-28T19:17:31.111Z,91.24
2019-04-28T19:20:01.884Z,91.86
2019-04-28T19:22:43.740Z,92.11
2019-04-28T19:25:14.946Z,92.40
2019-04-28T19:27:45.711Z,92.76
2019-04-28T19:30:16.567Z,92.37
2019-04-28T19:32:47.486Z,92.86
2019-04-28T19:35:18.732Z,92.67
2019-04-28T19:37:49.741Z,93.05
2019-04-28T19:40:20.818Z,93.92
2019-04-28T19:42:51.921Z,93.70
2019-04-28T19:45:22.774Z,94.53
2019-04-28T19:47:53.847Z,95.00
2019-04-28T19:50:24.616Z,94.96
2019-04-28T19:52:56.627Z,93.83
2019-04-28T19:55:32.078Z,93.16
2019-04-28T19:58:14.214Z,94.02
2019-04-28T20:00:54.197Z,94.18
2019-04-28T20:03:24.955Z,93.96
2019-04-28T20:05:55.886Z,94.21
2019-04-28T20:08:26.738Z,94.45
2019-04-28T20:10:58.766Z,94.35
2019-04-28T20:13:31.412Z,94.41
2019-04-28T20:16:02.134Z,95.44
2019-04-28T20:18:33.199Z,96.16
2019-04-28T20:21:04.453Z,96.20
2019-04-28T20:23:35.635Z,97.22
2019-04-28T20:26:07.038Z,98.09
2019-04-28T20:28:38.115Z,97.56
2019-04-28T20:31:09.207Z,97.39
2019-04-28T20:33:39.954Z,97.73
2019-04-28T20:36:17.339Z,98.49
2019-04-28T20:38:50.445Z,98.39
2019-04-28T20:41:23.681Z,98.83
2019-04-28T20:43:55.650Z,98.87
2019-04-28T20:46:26.489Z,99.15
2019-04-28T20:48:57.321Z,98.72
2019-04-28T20:51:28.086Z,99.28
2019-04-28T20:53:59.070Z,99.67
2019-04-28T20:56:29.862Z,99.39
2019-04-28T20:59:00.619Z,99.13
2019-04-28T21:01:31.895Z,99.20
2019-04-28T21:04:02.721Z,99.50
2019-04-28T21:06:33.747Z,99.75
2019-04-28T21:09:06.124Z,100.00
2019-04-28T21:11:38.959Z,99.72
2019-04-28T21:14:10.038Z,99.69
2019-04-28T21:16:41.055Z,99.82
2019-04-28T21:19:12.063Z,100.00
2019-04-28T21:21:42.840Z,100.00
2019-04-28T21:24:16.693Z,100.00
2019-04-28T21:26:46.603Z,99.82
2019-04-28T21:29:17.627Z,99.35
2019-04-28T21:31:48.725Z,99.29
2019-04-28T21:34:19.470Z,99.17
2019-04-28T21:36:50.505Z,99.59
2019-04-28T21:39:21.627Z,99.47
2019-04-28T21:41:52.589Z,99.71
2019-04-28T21:44:36.429Z,99.97
2019-04-28T21:47:14.645Z,100.00
2019-04-28T21:49:45.669Z,100.00
2019-04-28T21:52:16.592Z,100.00
2019-04-28T21:54:47.355Z,100.00
2019-04-28T21:57:18.465Z,100.00
2019-04-28T21:59:50.199Z,100.00
2019-04-28T22:02:21.452Z,100.00
2019-04-28T22:04:52.801Z,100.00
2019-04-28T22:07:23.592Z,100.00
2019-04-28T22:09:54.375Z,100.00
2019-04-28T22:12:25.157Z,100.00
2019-04-28T22:14:56.172Z,100.00
2019-04-28T22:17:28.938Z,100.00
2019-04-28T22:19:59.947Z,100.00
2019-04-28T22:22:30.997Z,100.00
2019-04-28T22:25:08.752Z,100.00
2019-04-28T22:27:41.906Z,100.00
2019-04-28T22:30:12.864Z,100.00
2019-04-28T22:32:43.710Z,100.00
2019-04-28T22:35:15.442Z,100.00
2019-04-28T22:37:46.551Z,100.00
2019-04-28T22:40:17.647Z,100.00
2019-04-28T22:42:48.719Z,100.00
2019-04-28T22:45:19.799Z,100.00
2019-04-28T22:47:50.888Z,100.00
2019-04-28T22:50:41.779Z,100.00
2019-04-28T22:53:14.454Z,100.00
2019-04-28T22:55:50.575Z,100.00
2019-04-28T22:58:37.043Z,100.00
2019-04-28T23:01:24.011Z,100.00
2019-04-28T23:04:03.914Z,100.00
2019-04-28T23:06:34.759Z,100.00
2019-04-28T23:09:07.307Z,100.00
2019-04-28T23:11:40.231Z,100.00
2019-04-28T23:14:11.250Z,100.00
2019-04-28T23:16:42.168Z,100.00
2019-04-28T23:19:15.022Z,100.00
2019-04-28T23:22:13.643Z,100.00
2019-04-28T23:24:44.483Z,100.00
2019-04-28T23:27:15.318Z,100.00
2019-04-28T23:29:46.082Z,100.00
2019-04-28T23:32:17.185Z,100.00
2019-04-28T23:34:48.256Z,100.00
2019-04-28T23:37:19.345Z,100.00
2019-04-28T23:39:50.421Z,100.00
2019-04-28T23:42:29.364Z,100.00
2019-04-28T23:45:00.667Z,100.00
2019-04-28T23:47:31.512Z,100.00
2019-04-28T23:50:02.348Z,100.00
2019-04-28T23:52:47.135Z,100.00
2019-04-28T23:55:20.369Z,100.00
2019-04-28T23:57:51.152Z,100.00
